createdAt,value
2019-04-30T00:01:27.022Z,73.10
2019-04-30T00:04:01.154Z,72.80
2019-04-30T00:06:34.359Z,73.10
2019-04-30T00:09:02.044Z,73.00
2019-04-30T00:11:35.852Z,72.80
2019-04-30T00:14:05.634Z,73.50
2019-04-30T00:16:38.827Z,73.20
2019-04-30T00:19:10.647Z,73.50
2019-04-30T00:21:38.412Z,74.70
2019-04-30T00:24:10.247Z,73.70
2019-04-30T00:26:46.802Z,74.00
2019-04-30T00:29:12.194Z,74.30
2019-04-30T00:31:44.699Z,74.20
2019-04-30T00:34:15.129Z,73.50
2019-04-30T00:36:46.018Z,73.80
2019-04-30T00:39:16.762Z,74.60
2019-04-30T00:41:47.314Z,74.40
2019-04-30T00:44:19.865Z,73.80
2019-04-30T00:46:49.770Z,73.90
2019-04-30T00:49:23.352Z,73.90
2019-04-30T00:51:54.742Z,74.00
2019-04-30T00:54:22.416Z,75.00
2019-04-30T00:56:59.142Z,75.20
2019-04-30T00:59:25.021Z,74.60
2019-04-30T01:02:20.119Z,75.00
2019-04-30T01:04:50.969Z,74.50
2019-04-30T01:07:20.977Z,75.70
2019-04-30T01:09:50.483Z,75.90
2019-04-30T01:12:27.503Z,75.80
2019-04-30T01:14:52.336Z,75.90
2019-04-30T01:17:21.931Z,75.20
2019-04-30T01:19:54.487Z,75.60
2019-04-30T01:22:28.183Z,75.50
2019-04-30T01:24:54.259Z,75.10
2019-04-30T01:27:24.037Z,76.10
2019-04-30T01:29:53.934Z,75.50
2019-04-30T01:32:23.458Z,75.30
2019-04-30T01:34:54.016Z,76.40
2019-04-30T01:37:28.315Z,75.90
2019-04-30T01:39:54.923Z,75.50
2019-04-30T01:42:25.993Z,76.20
2019-04-30T01:44:55.441Z,76.60
2019-04-30T01:47:27.880Z,76.40
2019-04-30T01:50:00.114Z,76.10
2019-04-30T01:52:35.038Z,76.10
2019-04-30T01:55:00.061Z,77.10
2019-04-30T01:57:31.239Z,76.60
2019-04-30T02:00:02.525Z,77.20
2019-04-30T02:02:39.459Z,77.00
2019-04-30T02:05:09.277Z,76.40
2019-04-30T02:07:40.378Z,76.60
2019-04-30T02:10:10.188Z,76.50
2019-04-30T02:12:39.778Z,76.60
2019-04-30T02:15:09.620Z,76.60
2019-04-30T02:17:39.931Z,76.40
2019-04-30T02:20:09.716Z,76.90
2019-04-30T02:22:39.346Z,77.40
2019-04-30T02:25:09.690Z,77.90
2019-04-30T02:27:39.313Z,77.90
2019-04-30T02:30:11.158Z,78.00
2019-04-30T02:32:40.475Z,78.70
2019-04-30T02:35:19.428Z,78.00
2019-04-30T02:38:09.848Z,78.10
2019-04-30T02:40:39.276Z,78.10
2019-04-30T02:43:11.646Z,78.00
2019-04-30T02:45:42.184Z,77.60
2019-04-30T02:48:12.791Z,77.70
2019-04-30T02:50:43.497Z,78.20
2019-04-30T02:53:51.087Z,78.70
2019-04-30T02:56:26.261Z,78.30
2019-04-30T02:58:53.834Z,78.20
2019-04-30T03:01:24.371Z,77.90
2019-04-30T03:03:53.853Z,78.20
2019-04-30T03:06:23.910Z,77.60
2019-04-30T03:08:53.489Z,77.90
2019-04-30T03:11:22.930Z,77.80
2019-04-30T03:13:52.345Z,77.80
2019-04-30T03:16:40.216Z,77.80
2019-04-30T03:19:29.577Z,77.50
2019-04-30T03:22:03.683Z,77.10
2019-04-30T03:24:33.175Z,77.40
2019-04-30T03:27:02.729Z,77.60
2019-04-30T03:29:32.342Z,78.00
2019-04-30T03:32:03.299Z,77.40
2019-04-30T03:34:33.429Z,77.20
2019-04-30T03:37:03.232Z,77.00
2019-04-30T03:39:34.373Z,77.00
2019-04-30T03:42:03.914Z,78.00
2019-04-30T03:44:33.493Z,76.90
2019-04-30T03:47:02.979Z,77.90
2019-04-30T03:49:32.467Z,77.90
2019-04-30T03:52:02.002Z,78.00
2019-04-30T03:54:31.458Z,77.70
2019-04-30T03:57:01.175Z,78.50
2019-04-30T03:59:30.743Z,78.20
2019-04-30T04:02:12.289Z,77.90
2019-04-30T04:04:40.342Z,78.20
2019-04-30T04:07:29.805Z,78.30
2019-04-30T04:10:15.325Z,79.20
2019-04-30T04:12:44.795Z,78.50
2019-04-30T04:15:14.375Z,79.30
2019-04-30T04:17:43.798Z,79.50
2019-04-30T04:20:13.362Z,79.30
2019-04-30T04:22:42.850Z,79.30
2019-04-30T04:25:13.216Z,78.70
2019-04-30T04:27:42.154Z,79.40
2019-04-30T04:30:11.922Z,79.10
2019-04-30T04:32:41.437Z,79.30
2019-04-30T04:35:12.801Z,79.20
2019-04-30T04:37:42.185Z,78.40
2019-04-30T04:40:11.887Z,78.70
2019-04-30T04:42:41.460Z,78.50
2019-04-30T04:45:11.069Z,79.00
2019-04-30T04:47:40.579Z,78.30
2019-04-30T04:50:10.550Z,78.10
2019-04-30T04:52:40.172Z,77.70
2019-04-30T04:55:11.330Z,78.40
2019-04-30T04:57:40.824Z,78.90
2019-04-30T05:00:10.828Z,79.00
2019-04-30T05:02:49.790Z,79.20
2019-04-30T05:05:20.678Z,79.80
2019-04-30T05:07:50.196Z,79.60
2019-04-30T05:10:19.686Z,79.20
2019-04-30T05:12:50.931Z,79.00
2019-04-30T05:15:20.208Z,78.90
2019-04-30T05:17:51.633Z,78.80
2019-04-30T05:20:21.140Z,79.40
2019-04-30T05:22:52.151Z,79.70
2019-04-30T05:25:20.828Z,79.90
2019-04-30T05:27:50.186Z,79.60
2019-04-30T05:30:20.192Z,78.70
2019-04-30T05:32:50.863Z,78.70
2019-04-30T05:35:20.528Z,78.90
2019-04-30T05:37:50.115Z,78.40
2019-04-30T05:40:19.504Z,77.60
2019-04-30T05:42:51.200Z,77.80
2019-04-30T05:45:20.736Z,78.10
2019-04-30T05:47:50.623Z,77.80
2019-04-30T05:50:20.435Z,78.40
2019-04-30T05:52:49.939Z,78.00
2019-04-30T05:55:19.903Z,77.60
2019-04-30T05:57:55.915Z,77.60
2019-04-30T06:00:23.509Z,77.40
2019-04-30T06:02:53.005Z,77.90
2019-04-30T06:05:22.655Z,77.50
2019-04-30T06:07:55.441Z,77.30
2019-04-30T06:10:26.362Z,77.20
2019-04-30T06:13:00.777Z,76.80
2019-04-30T06:15:32.059Z,77.20
2019-04-30T06:18:10.777Z,77.30
2019-04-30T06:20:32.790Z,76.80
2019-04-30T06:23:02.318Z,77.50
2019-04-30T06:25:45.714Z,77.50
2019-04-30T06:28:03.675Z,77.80
2019-04-30T06:30:33.792Z,77.30
2019-04-30T06:33:03.481Z,76.60
2019-04-30T06:35:33.122Z,76.50
2019-04-30T06:38:03.500Z,78.00
2019-04-30T06:40:33.224Z,76.80
2019-04-30T06:43:02.863Z,77.20
2019-04-30T06:45:33.960Z,77.00
2019-04-30T06:48:05.066Z,77.00
2019-04-30T06:50:34.528Z,76.50
2019-04-30T06:53:04.168Z,76.40
2019-04-30T06:55:33.667Z,76.10
2019-04-30T06:58:12.196Z,75.90
2019-04-30T07:00:40.161Z,76.50
2019-04-30T07:03:09.989Z,76.40
2019-04-30T07:05:41.156Z,75.60
2019-04-30T07:08:37.356Z,75.70
2019-04-30T07:11:19.420Z,76.30
2019-04-30T07:13:52.205Z,76.00
2019-04-30T07:16:21.889Z,76.10
2019-04-30T07:18:51.542Z,76.20
2019-04-30T07:21:21.057Z,76.10
2019-04-30T07:23:50.753Z,75.40
2019-04-30T07:26:24.545Z,75.80
2019-04-30T07:31:22.697Z,75.00
2019-04-30T07:33:54.016Z,75.30
2019-04-30T07:36:42.425Z,76.00
2019-04-30T07:38:56.727Z,75.30
2019-04-30T07:41:30.743Z,74.80
2019-04-30T07:44:00.921Z,76.10
2019-04-30T07:46:35.366Z,73.90
2019-04-30T07:49:01.890Z,73.60
2019-04-30T07:51:37.754Z,74.50
2019-04-30T07:54:03.922Z,74.50
2019-04-30T07:56:37.730Z,74.70
2019-04-30T07:59:05.048Z,73.90
2019-04-30T08:01:34.479Z,75.00
2019-04-30T08:04:05.639Z,73.00
2019-04-30T08:06:35.153Z,73.20
2019-04-30T08:09:10.115Z,72.80
2019-04-30T08:09:34.156Z,74.70
2019-04-30T08:11:41.869Z,72.50
2019-04-30T08:14:09.978Z,72.70
2019-04-30T08:16:40.402Z,72.80
2019-04-30T08:19:09.966Z,72.90
2019-04-30T08:21:39.434Z,73.70
2019-04-30T08:24:09.273Z,74.10
2019-04-30T08:26:39.751Z,73.50
2019-04-30T08:29:10.925Z,71.40
2019-04-30T08:31:40.962Z,72.70
2019-04-30T08:34:10.979Z,72.60
2019-04-30T08:36:39.897Z,71.50
2019-04-30T08:39:09.717Z,71.70
2019-04-30T08:41:39.384Z,73.10
2019-04-30T08:44:09.400Z,72.10
2019-04-30T08:46:39.148Z,71.00
2019-04-30T08:49:09.654Z,71.80
2019-04-30T08:51:40.135Z,70.40
2019-04-30T08:54:09.947Z,71.40
2019-04-30T08:56:39.524Z,70.40
2019-04-30T08:59:11.203Z,70.10
2019-04-30T09:01:40.251Z,70.20
2019-04-30T09:04:10.487Z,70.70
2019-04-30T09:06:40.286Z,71.30
2019-04-30T09:09:11.525Z,72.30
2019-04-30T09:11:51.970Z,70.60
2019-04-30T09:14:12.253Z,70.80
2019-04-30T09:16:41.881Z,71.70
2019-04-30T09:19:13.120Z,72.60
2019-04-30T09:21:43.601Z,72.70
2019-04-30T09:24:13.112Z,69.80
2019-04-30T09:26:42.629Z,70.90
2019-04-30T09:29:12.214Z,71.80
2019-04-30T09:31:41.839Z,72.40
2019-04-30T09:34:17.045Z,71.80
2019-04-30T09:36:44.368Z,73.00
2019-04-30T09:39:14.028Z,72.40
2019-04-30T09:41:43.528Z,73.00
2019-04-30T09:44:13.086Z,71.30
2019-04-30T09:46:42.664Z,71.30
2019-04-30T09:49:12.243Z,71.40
2019-04-30T09:51:41.871Z,73.60
2019-04-30T09:54:12.695Z,72.90
2019-04-30T09:56:42.662Z,73.20
2019-04-30T09:59:12.163Z,73.30
2019-04-30T10:01:41.794Z,73.70
2019-04-30T10:04:11.884Z,73.30
2019-04-30T10:06:41.575Z,72.60
2019-04-30T10:09:12.868Z,72.60
2019-04-30T10:11:50.565Z,72.00
2019-04-30T10:14:20.203Z,72.90
2019-04-30T10:16:54.269Z,73.20
2019-04-30T10:19:24.734Z,73.70
2019-04-30T10:21:54.246Z,73.70
2019-04-30T10:24:23.705Z,74.00
2019-04-30T10:26:53.550Z,74.30
2019-04-30T10:29:23.243Z,73.70
2019-04-30T10:31:52.731Z,73.90
2019-04-30T10:34:22.127Z,74.70
2019-04-30T10:36:51.807Z,74.00
2019-04-30T10:39:21.878Z,74.40
2019-04-30T10:41:51.609Z,73.40
2019-04-30T10:44:21.102Z,74.40
2019-04-30T10:46:50.603Z,74.00
2019-04-30T10:49:20.174Z,74.30
2019-04-30T10:51:50.179Z,73.70
2019-04-30T10:54:25.775Z,74.60
2019-04-30T10:56:51.446Z,74.70
2019-04-30T10:59:21.954Z,74.90
2019-04-30T11:01:51.441Z,72.90
2019-04-30T11:04:20.897Z,73.90
2019-04-30T11:06:50.560Z,74.10
2019-04-30T11:09:20.263Z,73.90
2019-04-30T11:11:49.885Z,73.90
2019-04-30T11:14:19.295Z,73.90
2019-04-30T11:16:51.207Z,74.80
2019-04-30T11:19:20.128Z,73.80
2019-04-30T11:21:50.332Z,73.40
2019-04-30T11:24:20.067Z,73.70
2019-04-30T11:26:50.641Z,73.20
2019-04-30T11:29:22.985Z,73.90
2019-04-30T11:31:56.800Z,74.20
2019-04-30T11:34:28.132Z,73.90
2019-04-30T11:36:58.021Z,72.80
2019-04-30T11:39:29.789Z,74.20
2019-04-30T11:41:59.479Z,74.20
2019-04-30T11:44:31.440Z,73.40
2019-04-30T11:47:03.229Z,73.90
2019-04-30T11:49:32.684Z,74.80
2019-04-30T11:52:02.264Z,72.90
2019-04-30T11:54:31.918Z,73.10
2019-04-30T11:57:01.438Z,71.80
2019-04-30T11:59:31.021Z,71.40
2019-04-30T12:02:02.179Z,72.40
2019-04-30T12:04:31.646Z,71.50
2019-04-30T12:07:02.959Z,69.40
2019-04-30T12:09:50.406Z,70.70
2019-04-30T12:12:19.908Z,71.50
2019-04-30T12:14:50.284Z,71.20
2019-04-30T12:17:19.777Z,69.80
2019-04-30T12:19:49.837Z,69.70
2019-04-30T12:22:20.279Z,69.40
2019-04-30T12:25:02.044Z,69.90
2019-04-30T12:27:20.892Z,71.70
2019-04-30T12:29:50.348Z,72.10
2019-04-30T12:32:21.371Z,71.30
2019-04-30T12:34:50.998Z,70.80
2019-04-30T12:37:20.521Z,71.10
2019-04-30T12:39:49.998Z,70.90
2019-04-30T12:42:19.484Z,70.60
2019-04-30T12:44:49.609Z,71.10
2019-04-30T12:47:21.729Z,69.80
2019-04-30T12:50:10.165Z,69.00
2019-04-30T12:52:41.267Z,70.40
2019-04-30T12:55:19.988Z,68.30
2019-04-30T12:57:58.862Z,68.20
2019-04-30T13:00:22.586Z,69.70
2019-04-30T13:02:53.577Z,69.20
2019-04-30T13:05:23.105Z,68.50
2019-04-30T13:07:52.971Z,68.00
2019-04-30T13:10:23.686Z,69.20
2019-04-30T13:12:54.068Z,69.00
2019-04-30T13:15:23.886Z,68.10
2019-04-30T13:17:53.516Z,69.90
2019-04-30T13:20:24.081Z,68.60
2019-04-30T13:22:54.065Z,66.90
2019-04-30T13:25:32.572Z,67.90
2019-04-30T13:27:57.429Z,69.20
2019-04-30T13:30:29.816Z,67.10
2019-04-30T13:33:09.470Z,68.90
2019-04-30T13:35:39.097Z,69.00
2019-04-30T13:38:13.062Z,68.80
2019-04-30T13:40:44.087Z,68.60
2019-04-30T13:43:15.386Z,67.90
2019-04-30T13:45:44.833Z,67.60
2019-04-30T13:48:14.509Z,67.50
2019-04-30T13:50:43.972Z,67.10
2019-04-30T13:53:13.554Z,68.10
2019-04-30T13:55:45.876Z,67.20
2019-04-30T13:58:14.932Z,66.20
2019-04-30T14:00:44.781Z,66.50
2019-04-30T14:03:15.955Z,65.60
2019-04-30T14:05:45.428Z,62.90
2019-04-30T14:08:20.004Z,64.00
2019-04-30T14:10:50.435Z,66.00
2019-04-30T14:13:21.577Z,64.90
2019-04-30T14:15:51.216Z,63.90
2019-04-30T14:18:28.468Z,64.90
2019-04-30T14:20:52.238Z,66.90
2019-04-30T14:23:21.803Z,65.60
2019-04-30T14:25:56.555Z,65.80
2019-04-30T14:28:22.575Z,64.70
2019-04-30T14:30:52.028Z,64.90
2019-04-30T14:33:26.022Z,63.70
2019-04-30T14:35:52.619Z,65.50
2019-04-30T14:38:22.244Z,63.60
2019-04-30T14:40:52.584Z,63.60
2019-04-30T14:43:29.014Z,61.80
2019-04-30T14:46:01.726Z,63.40
2019-04-30T14:48:34.067Z,60.70
2019-04-30T14:51:04.118Z,60.80
2019-04-30T14:53:35.281Z,60.60
2019-04-30T14:56:11.613Z,62.40
2019-04-30T14:58:41.974Z,63.30
2019-04-30T15:01:22.392Z,60.40
2019-04-30T15:03:51.958Z,62.60
2019-04-30T15:06:21.480Z,62.60
2019-04-30T15:08:50.969Z,60.30
2019-04-30T15:11:20.630Z,62.80
2019-04-30T15:13:50.092Z,62.90
2019-04-30T15:16:19.630Z,64.10
2019-04-30T15:18:49.226Z,64.30
2019-04-30T15:21:18.766Z,63.50
2019-04-30T15:24:06.384Z,63.50
2019-04-30T15:26:36.669Z,63.00
2019-04-30T15:29:10.212Z,62.10
2019-04-30T15:31:39.748Z,63.10
2019-04-30T15:34:11.222Z,64.10
2019-04-30T15:36:41.142Z,63.40
2019-04-30T15:39:13.490Z,65.00
2019-04-30T15:41:43.042Z,63.90
2019-04-30T15:44:13.848Z,63.20
2019-04-30T15:46:43.540Z,64.90
2019-04-30T15:49:13.036Z,63.90
2019-04-30T15:51:42.572Z,65.30
2019-04-30T15:54:12.273Z,64.10
2019-04-30T15:56:43.795Z,65.70
2019-04-30T15:59:18.950Z,65.90
2019-04-30T16:01:50.313Z,65.50
2019-04-30T16:04:28.578Z,64.70
2019-04-30T16:06:58.510Z,65.10
2019-04-30T16:09:32.789Z,66.70
2019-04-30T16:12:12.681Z,64.50
2019-04-30T16:14:43.283Z,64.70
2019-04-30T16:17:14.497Z,64.50
2019-04-30T16:19:45.427Z,65.40
2019-04-30T16:22:14.987Z,65.10
2019-04-30T16:24:44.569Z,66.70
2019-04-30T16:27:14.561Z,66.70
2019-04-30T16:29:44.095Z,66.40
2019-04-30T16:32:14.378Z,66.90
2019-04-30T16:34:43.834Z,66.30
2019-04-30T16:37:13.390Z,66.80
2019-04-30T16:39:43.027Z,65.30
2019-04-30T16:42:12.799Z,64.00
2019-04-30T16:44:42.351Z,65.70
2019-04-30T16:47:16.044Z,64.80
2019-04-30T16:49:42.939Z,65.60
2019-04-30T16:52:12.424Z,66.60
2019-04-30T16:54:41.912Z,66.70
2019-04-30T16:57:11.324Z,65.60
2019-04-30T16:59:42.268Z,64.70
2019-04-30T17:02:12.715Z,65.50
2019-04-30T17:04:52.708Z,66.10
2019-04-30T17:07:41.188Z,65.40
2019-04-30T17:10:19.364Z,65.90
2019-04-30T17:12:53.606Z,67.00
2019-04-30T17:15:29.235Z,66.80
2019-04-30T17:17:59.169Z,66.70
2019-04-30T17:20:28.884Z,66.00
2019-04-30T17:22:59.500Z,66.30
2019-04-30T17:25:29.240Z,66.80
2019-04-30T17:28:01.478Z,66.80
2019-04-30T17:30:29.916Z,67.60
2019-04-30T17:32:59.829Z,67.10
2019-04-30T17:35:29.405Z,67.20
2019-04-30T17:37:58.901Z,67.90
2019-04-30T17:40:29.176Z,68.00
2019-04-30T17:42:58.804Z,67.90
2019-04-30T17:45:29.191Z,67.40
2019-04-30T17:47:59.815Z,68.10
2019-04-30T17:50:29.650Z,68.10
2019-04-30T17:53:00.734Z,68.10
2019-04-30T17:55:31.822Z,68.10
2019-04-30T17:58:02.826Z,68.90
2019-04-30T18:00:34.047Z,68.50
2019-04-30T18:03:03.778Z,68.20
2019-04-30T18:05:33.248Z,68.80
2019-04-30T18:08:02.741Z,69.50
2019-04-30T18:10:33.060Z,69.00
2019-04-30T18:13:02.632Z,69.30
2019-04-30T18:15:32.389Z,69.80
2019-04-30T18:18:20.468Z,69.80
2019-04-30T18:20:56.933Z,70.70
2019-04-30T18:23:31.659Z,71.20
2019-04-30T18:26:03.756Z,71.50
2019-04-30T18:28:33.173Z,72.00
2019-04-30T18:31:02.695Z,72.00
2019-04-30T18:33:32.258Z,71.90
2019-04-30T18:36:01.773Z,71.90
2019-04-30T18:38:31.316Z,71.70
2019-04-30T18:41:00.895Z,72.30
2019-04-30T18:43:30.533Z,72.40
2019-04-30T18:46:01.781Z,72.30
2019-04-30T18:48:30.600Z,72.50
2019-04-30T18:51:00.090Z,72.90
2019-04-30T18:53:31.205Z,72.50
2019-04-30T18:56:00.733Z,72.90
2019-04-30T18:58:39.999Z,73.10
2019-04-30T19:01:04.430Z,73.20
2019-04-30T19:03:35.925Z,73.40
2019-04-30T19:06:08.613Z,73.40
2019-04-30T19:08:51.830Z,73.00
2019-04-30T19:11:29.180Z,73.50
2019-04-30T19:14:03.363Z,73.90
2019-04-30T19:16:34.551Z,74.30
2019-04-30T19:19:15.615Z,74.50
2019-04-30T19:21:45.077Z,75.10
2019-04-30T19:24:14.573Z,74.80
2019-04-30T19:26:45.513Z,75.70
2019-04-30T19:29:14.226Z,75.30
2019-04-30T19:31:43.543Z,75.90
2019-04-30T19:34:13.128Z,75.90
2019-04-30T19:36:44.119Z,76.20
2019-04-30T19:39:13.427Z,75.80
2019-04-30T19:41:43.077Z,75.80
2019-04-30T19:44:12.818Z,75.80
2019-04-30T19:46:42.747Z,75.60
2019-04-30T19:49:12.281Z,75.70
2019-04-30T19:51:42.026Z,75.30
2019-04-30T19:54:11.806Z,75.50
2019-04-30T19:56:41.406Z,75.30
2019-04-30T19:59:11.217Z,75.40
2019-04-30T20:01:40.886Z,75.40
2019-04-30T20:04:10.695Z,75.30
2019-04-30T20:06:40.246Z,75.60
2019-04-30T20:09:09.766Z,75.40
2019-04-30T20:11:42.555Z,75.30
2019-04-30T20:14:12.188Z,75.30
2019-04-30T20:16:41.608Z,75.30
2019-04-30T20:19:11.137Z,75.90
2019-04-30T20:21:48.627Z,76.10
2019-04-30T20:24:11.862Z,76.20
2019-04-30T20:26:41.371Z,75.80
2019-04-30T20:29:10.836Z,76.20
2019-04-30T20:31:40.336Z,76.70
2019-04-30T20:34:09.864Z,76.10
2019-04-30T20:36:39.356Z,76.50
2019-04-30T20:39:10.502Z,76.60
2019-04-30T20:41:40.236Z,76.20
2019-04-30T20:44:10.616Z,76.30
2019-04-30T20:46:40.076Z,76.60
2019-04-30T20:49:09.652Z,77.00
2019-04-30T20:51:52.474Z,76.60
2019-04-30T20:54:10.260Z,77.00
2019-04-30T20:56:39.704Z,77.30
2019-04-30T20:59:11.442Z,77.00
2019-04-30T21:01:41.276Z,76.80
2019-04-30T21:04:10.872Z,77.10
2019-04-30T21:06:40.470Z,77.00
2019-04-30T21:09:10.321Z,77.70
2019-04-30T21:11:40.518Z,77.80
2019-04-30T21:14:10.374Z,78.10
2019-04-30T21:16:39.935Z,78.60
2019-04-30T21:19:09.442Z,78.40
2019-04-30T21:21:40.490Z,78.20
2019-04-30T21:24:10.192Z,78.50
2019-04-30T21:26:39.784Z,78.90
2019-04-30T21:29:13.096Z,79.50
2019-04-30T21:31:42.042Z,79.30
2019-04-30T21:34:23.768Z,79.50
2019-04-30T21:36:55.066Z,79.80
2019-04-30T21:39:24.684Z,79.90
2019-04-30T21:41:54.292Z,80.30
2019-04-30T21:44:23.981Z,80.30
2019-04-30T21:46:53.509Z,80.40
2019-04-30T21:49:23.046Z,80.00
2019-04-30T21:51:52.649Z,80.20
2019-04-30T21:54:22.300Z,80.20
2019-04-30T21:56:51.752Z,80.60
2019-04-30T21:59:24.485Z,80.20
2019-04-30T22:01:52.479Z,80.60
2019-04-30T22:04:22.191Z,80.00
2019-04-30T22:06:51.649Z,80.50
2019-04-30T22:09:21.667Z,80.40
2019-04-30T22:11:51.521Z,80.40
2019-04-30T22:14:21.354Z,80.60
2019-04-30T22:16:50.901Z,81.00
2019-04-30T22:19:20.513Z,80.70
2019-04-30T22:21:49.965Z,80.90
2019-04-30T22:24:19.452Z,81.40
2019-04-30T22:26:49.048Z,81.60
2019-04-30T22:29:19.185Z,81.50
2019-04-30T22:31:49.821Z,81.90
2019-04-30T22:34:19.235Z,81.50
2019-04-30T22:36:49.637Z,81.40
2019-04-30T22:39:29.946Z,81.20
2019-04-30T22:42:02.296Z,81.30
2019-04-30T22:44:31.977Z,82.40
2019-04-30T22:47:01.381Z,82.50
2019-04-30T22:49:30.924Z,82.20
2019-04-30T22:52:00.337Z,82.00
2019-04-30T22:54:29.831Z,82.30
2019-04-30T22:56:59.247Z,81.80
2019-04-30T22:59:28.665Z,82.20
2019-04-30T23:02:05.599Z,82.30
2019-04-30T23:04:43.350Z,82.60
2019-04-30T23:07:12.853Z,83.20
2019-04-30T23:09:42.424Z,82.30
2019-04-30T23:12:11.895Z,82.70
2019-04-30T23:14:41.389Z,82.50
2019-04-30T23:17:10.775Z,82.70
2019-04-30T23:19:40.262Z,81.50
2019-04-30T23:22:09.722Z,81.70
2019-04-30T23:24:39.222Z,81.90
2019-04-30T23:27:08.685Z,82.00
2019-04-30T23:29:39.245Z,81.50
2019-04-30T23:32:08.704Z,81.40
2019-04-30T23:34:38.290Z,81.70
2019-04-30T23:37:07.727Z,82.30
2019-04-30T23:39:37.200Z,82.50
2019-04-30T23:42:06.620Z,83.10
2019-04-30T23:44:37.644Z,83.20
2019-04-30T23:47:07.106Z,82.70
2019-04-30T23:49:36.697Z,82.60
2019-04-30T23:52:06.154Z,82.20
2019-04-30T23:54:35.610Z,81.90
2019-04-30T23:57:05.180Z,82.40
2019-04-30T23:59:34.590Z,82.60
